Time;durP1;ratioP1;P1;durP2;ratioP2;P2;SDS_P1;SDS_P2;PMS_P1;PMS_P2;Temp;Humidity;BMP_temperature;BMP_pressure;BME280_temperature;BME280_humidity;BME280_pressure;Samples;Min_cycle;Max_cycle;Signal;HPM_P1;HPM_P2
2022/12/23 00:00:42;;;;;;;26.38;13.85;;;;;;;14.53;66.00;100200.59;5075277;28;20478;-71
2022/12/23 00:03:08;;;;;;;21.92;13.52;;;;;;;14.52;66.25;100196.19;5094525;28;20498;-70
2022/12/23 00:05:37;;;;;;;26.02;13.77;;;;;;;14.52;65.93;100190.78;5096002;28;20139;-70
2022/12/23 00:08:05;;;;;;;28.00;15.68;;;;;;;14.52;66.43;100201.59;5096231;28;20089;-71
2022/12/23 00:10:36;;;;;;;28.88;15.27;;;;;;;14.52;66.09;100209.72;5096334;28;20059;-69
2022/12/23 00:15:48;;;;;;;28.70;15.82;;;;;;;14.52;65.81;100207.84;5096008;28;20040;-71
2022/12/23 00:18:15;;;;;;;26.95;16.33;;;;;;;14.50;66.11;100209.84;5096038;28;20109;-70
2022/12/23 00:20:41;;;;;;;26.73;14.68;;;;;;;14.50;66.21;100214.41;5095960;28;20042;-70
2022/12/23 00:23:08;;;;;;;26.25;16.00;;;;;;;14.49;66.20;100226.22;5096086;28;20390;-70
2022/12/23 00:25:40;;;;;;;27.20;15.82;;;;;;;14.46;66.35;100223.81;5095931;28;20051;-70
2022/12/23 00:28:16;;;;;;;25.35;15.15;;;;;;;14.47;66.08;100237.19;5095943;28;20040;-70
2022/12/23 00:30:54;;;;;;;29.85;17.35;;;;;;;14.46;66.42;100229.22;5095889;28;20055;-70
2022/12/23 00:33:24;;;;;;;23.63;15.10;;;;;;;14.46;66.36;100224.66;5095712;28;20068;-69
2022/12/23 00:35:51;;;;;;;25.30;15.95;;;;;;;14.45;66.37;100227.50;5096605;28;20032;-71
2022/12/23 00:42:52;;;;;;;27.67;16.33;;;;;;;14.46;66.31;100237.31;5094658;28;20040;-70
2022/12/23 00:43:56;;;;;;;27.35;17.10;;;;;;;14.48;66.11;100238.03;5075435;28;20098;-70
2022/12/23 00:46:22;;;;;;;27.65;17.63;;;;;;;14.47;66.08;100233.63;5075318;28;20049;-70
2022/12/23 00:51:34;;;;;;;24.67;17.48;;;;;;;14.48;66.01;100238.88;5095580;28;20075;-70
2022/12/23 00:54:01;;;;;;;28.02;18.92;;;;;;;14.46;66.29;100237.31;5095269;28;20101;-70
2022/12/23 00:56:27;;;;;;;22.42;18.17;;;;;;;14.45;66.09;100244.56;5095661;28;20040;-70
2022/12/23 00:58:54;;;;;;;25.95;17.60;;;;;;;14.46;66.18;100248.97;5095439;28;20039;-70
2022/12/23 01:06:56;;;;;;;31.77;20.05;;;;;;;14.47;66.36;100260.63;5095602;28;20401;-70
2022/12/23 01:09:23;;;;;;;28.95;20.27;;;;;;;14.43;66.66;100256.53;5093778;28;20044;-71
2022/12/23 01:11:49;;;;;;;29.90;20.30;;;;;;;14.44;66.18;100256.38;5094088;28;20040;-71
2022/12/23 01:14:16;;;;;;;30.58;20.90;;;;;;;14.43;66.67;100268.19;5095428;28;20128;-71
2022/12/23 01:16:44;;;;;;;30.15;20.98;;;;;;;14.43;66.37;100262.78;5094534;28;20513;-70
2022/12/23 01:19:10;;;;;;;33.30;21.73;;;;;;;14.43;66.65;100268.19;5094806;28;20139;-70
2022/12/23 01:21:38;;;;;;;28.10;20.35;;;;;;;14.40;66.51;100271.16;5093082;28;20028;-71
2022/12/23 01:24:05;;;;;;;29.52;20.50;;;;;;;14.42;66.61;100268.31;5095074;28;20047;-70
2022/12/23 01:26:31;;;;;;;35.92;20.83;;;;;;;14.42;66.75;100262.91;5094895;28;20592;-70
2022/12/23 01:28:59;;;;;;;32.50;20.38;;;;;;;14.43;66.52;100270.03;5094792;28;20047;-71
2022/12/23 01:31:26;;;;;;;27.23;20.45;;;;;;;14.41;66.47;100264.75;5094594;28;20075;-70
2022/12/23 01:33:54;;;;;;;29.55;20.73;;;;;;;14.40;66.47;100273.84;5094585;28;20040;-70
2022/12/23 01:36:21;;;;;;;29.40;19.98;;;;;;;14.40;66.28;100275.72;5094658;28;20036;-70
2022/12/23 01:38:47;;;;;;;26.27;19.08;;;;;;;14.40;66.67;100273.84;5094548;28;20043;-70
2022/12/23 01:42:42;;;;;;;29.98;18.83;;;;;;;14.40;66.48;100275.72;5094212;28;20421;-70
2022/12/23 01:44:43;;;;;;;30.58;19.60;;;;;;;14.40;66.48;100273.84;5094464;28;20101;-70
2022/12/23 01:47:13;;;;;;;29.83;18.80;;;;;;;14.40;66.44;100273.00;5094408;28;20052;-70
2022/12/23 01:49:41;;;;;;;29.67;18.45;;;;;;;14.38;66.32;100283.09;5094394;28;20061;-71
2022/12/23 01:52:10;;;;;;;27.35;17.90;;;;;;;14.36;66.61;100285.97;5094243;28;20111;-70
2022/12/23 01:54:38;;;;;;;27.30;17.55;;;;;;;14.37;66.65;100287.66;5094242;28;20750;-70
2022/12/23 01:57:09;;;;;;;31.65;19.13;;;;;;;14.36;66.62;100285.97;5093324;28;20063;-71
2022/12/23 02:05:07;;;;;;;25.50;18.15;;;;;;;14.36;66.83;100298.63;5094256;28;20136;-69
2022/12/23 02:10:24;;;;;;;38.30;21.60;;;;;;;14.36;66.97;100304.88;5094281;28;20478;-71
2022/12/23 02:13:00;;;;;;;32.85;18.50;;;;;;;14.36;66.79;100318.38;5092510;28;20040;-71
2022/12/23 02:16:19;;;;;;;28.60;18.35;;;;;;;14.36;66.79;100315.66;5093505;28;20177;-71
2022/12/23 02:18:59;;;;;;;28.40;18.55;;;;;;;14.36;66.63;100321.06;5091932;28;20044;-71
2022/12/23 02:21:44;;;;;;;33.75;18.77;;;;;;;14.35;66.79;100322.06;5093703;28;20052;-72
2022/12/23 02:24:17;;;;;;;35.78;20.25;;;;;;;14.35;66.33;100324.78;5092501;28;20139;-71
2022/12/23 02:27:01;;;;;;;32.35;18.98;;;;;;;14.32;66.80;100327.75;5093710;28;20050;-72
2022/12/23 02:29:34;;;;;;;31.67;19.08;;;;;;;14.34;66.78;100333.88;5092994;28;20054;-72
2022/12/23 02:32:04;;;;;;;37.65;20.58;;;;;;;14.32;66.53;100325.91;5073235;28;20440;-71
2022/12/23 02:34:39;;;;;;;29.92;17.90;;;;;;;14.32;66.64;100328.63;5072302;28;20509;-72
2022/12/23 02:37:21;;;;;;;29.42;18.58;;;;;;;14.32;66.62;100334.03;5073443;28;20048;-71
2022/12/23 02:40:23;;;;;;;24.52;16.75;;;;;;;14.35;66.63;100334.72;5078442;28;20070;-71
2022/12/23 02:43:01;;;;;;;25.55;16.92;;;;;;;14.36;66.65;100342.69;5093434;28;20486;-72
2022/12/23 02:45:37;;;;;;;28.77;17.60;;;;;;;14.36;66.86;100339.97;5093572;28;20072;-70
2022/12/23 02:48:29;;;;;;;27.63;17.27;;;;;;;14.35;66.44;100346.38;5093861;28;20036;-72
2022/12/23 02:50:57;;;;;;;25.63;17.08;;;;;;;14.38;66.46;100350.66;5053294;28;20495;-71
2022/12/23 02:53:31;;;;;;;28.95;17.75;;;;;;;14.37;66.51;100363.28;5071804;28;20398;-71
2022/12/23 02:55:59;;;;;;;30.35;18.17;;;;;;;14.36;66.96;100364.28;5073327;28;20044;-71
2022/12/23 02:58:32;;;;;;;26.48;17.83;;;;;;;14.36;66.50;100375.09;5073283;28;20155;-71
2022/12/23 03:01:02;;;;;;;24.02;17.48;;;;;;;14.35;66.79;100378.81;5077582;28;20486;-70
2022/12/23 03:03:30;;;;;;;26.88;17.38;;;;;;;14.35;66.78;100386.06;5072627;28;20044;-71
2022/12/23 03:05:57;;;;;;;27.15;17.70;;;;;;;14.34;67.05;100387.91;5072910;28;20068;-70
2022/12/23 03:08:41;;;;;;;24.08;16.33;;;;;;;14.34;66.56;100390.59;5072870;28;20525;-71
2022/12/23 03:11:14;;;;;;;26.00;17.67;;;;;;;14.33;67.00;100388.91;5091540;28;20044;-70
2022/12/23 03:13:58;;;;;;;30.05;18.38;;;;;;;14.32;66.74;100387.19;5093201;28;20131;-70
2022/12/23 03:16:31;;;;;;;25.58;17.80;;;;;;;14.31;67.09;100382.78;5091646;28;20474;-71
2022/12/23 03:19:00;;;;;;;27.85;17.08;;;;;;;14.30;67.02;100381.94;5093230;28;20036;-70
2022/12/23 03:21:56;;;;;;;26.63;17.23;;;;;;;14.30;67.03;100379.22;5093003;28;20040;-70
2022/12/23 03:24:49;;;;;;;30.58;18.33;;;;;;;14.31;66.87;100380.09;5093242;28;20040;-70
2022/12/23 03:27:25;;;;;;;23.88;16.17;;;;;;;14.31;66.81;100378.25;5093418;28;20129;-69
2022/12/23 03:30:14;;;;;;;26.95;16.52;;;;;;;14.31;66.71;100377.38;5093467;28;20090;-71
2022/12/23 03:33:01;;;;;;;25.80;17.42;;;;;;;14.30;66.61;100371.13;5092966;28;20504;-69
2022/12/23 03:35:42;;;;;;;24.05;15.00;;;;;;;14.34;67.03;100370.84;5095000;28;20064;-70
2022/12/23 03:38:12;;;;;;;25.83;16.60;;;;;;;14.31;66.98;100369.28;5097191;28;20478;-69
2022/12/23 03:40:47;;;;;;;28.50;15.63;;;;;;;14.32;66.78;100379.09;5096879;28;20048;-70
2022/12/23 03:43:21;;;;;;;21.33;14.80;;;;;;;14.33;66.61;100375.41;5096780;28;20476;-70
2022/12/23 03:45:53;;;;;;;21.30;14.15;;;;;;;14.34;66.88;100369.00;5096834;28;20400;-70
2022/12/23 03:48:25;;;;;;;20.42;13.43;;;;;;;14.33;66.85;100386.19;5096739;28;20394;-71
2022/12/23 03:50:59;;;;;;;20.55;12.60;;;;;;;14.33;66.80;100372.69;5096586;28;20494;-70
2022/12/23 03:53:33;;;;;;;20.50;13.68;;;;;;;14.32;67.01;100371.00;5096333;28;20036;-70
2022/12/23 03:56:05;;;;;;;23.25;13.93;;;;;;;14.31;66.92;100383.63;5097067;28;20067;-71
2022/12/23 03:58:35;;;;;;;20.00;14.48;;;;;;;14.29;66.52;100373.97;5095417;28;20410;-70
2022/12/23 04:01:10;;;;;;;20.80;14.40;;;;;;;14.27;66.75;100370.56;5096535;28;20040;-70
2022/12/23 04:03:49;;;;;;;20.98;13.77;;;;;;;14.27;67.10;100371.41;5096137;28;20432;-71
2022/12/23 04:06:18;;;;;;;22.42;14.95;;;;;;;14.26;67.17;100374.25;5096513;28;20044;-69
2022/12/23 04:08:47;;;;;;;22.35;13.85;;;;;;;14.25;66.84;100377.97;5096192;28;20036;-69
2022/12/23 04:11:13;;;;;;;24.42;15.32;;;;;;;14.25;66.79;100380.66;5095600;28;20116;-69
2022/12/23 04:13:40;;;;;;;22.42;13.50;;;;;;;14.26;66.80;100393.16;5096421;28;20037;-70
2022/12/23 04:16:07;;;;;;;22.98;15.57;;;;;;;14.26;67.06;100393.16;5096332;28;20052;-69
2022/12/23 04:18:33;;;;;;;20.38;14.50;;;;;;;14.27;66.93;100402.97;5096209;28;20442;-70
2022/12/23 04:21:00;;;;;;;23.75;15.77;;;;;;;14.24;66.88;100405.97;5095801;28;20036;-70
2022/12/23 04:23:27;;;;;;;23.10;15.85;;;;;;;14.24;66.74;100416.78;5094396;28;20036;-70
2022/12/23 04:25:53;;;;;;;25.33;16.58;;;;;;;14.24;66.64;100408.66;5094724;28;20094;-70
2022/12/23 04:28:20;;;;;;;28.85;17.45;;;;;;;14.21;66.81;100406.25;5096424;28;20070;-70
2022/12/23 04:30:46;;;;;;;27.70;16.90;;;;;;;14.22;66.68;100413.38;5095882;28;20044;-71
2022/12/23 04:33:13;;;;;;;27.60;17.73;;;;;;;14.21;67.31;100417.91;5094847;28;20433;-71
2022/12/23 04:35:39;;;;;;;32.20;18.85;;;;;;;14.23;66.82;100420.47;5095406;28;20079;-70
2022/12/23 04:38:06;;;;;;;23.40;17.63;;;;;;;14.22;66.88;100416.91;5096073;28;20044;-70
2022/12/23 04:40:33;;;;;;;31.63;18.52;;;;;;;14.23;67.21;100417.75;5095622;28;20036;-70
2022/12/23 04:42:59;;;;;;;31.90;17.70;;;;;;;14.23;66.74;100418.63;5094613;28;20032;-70
2022/12/23 04:45:26;;;;;;;28.42;17.10;;;;;;;14.24;67.21;100419.47;5095410;28;20071;-70
2022/12/23 04:47:54;;;;;;;28.45;17.42;;;;;;;14.22;66.74;100421.47;5096068;28;20055;-70
2022/12/23 04:50:20;;;;;;;30.40;17.83;;;;;;;14.23;67.15;100428.56;5095602;28;20048;-70
2022/12/23 04:52:47;;;;;;;28.65;15.75;;;;;;;14.23;67.03;100428.56;5094525;28;20068;-71
2022/12/23 04:55:13;;;;;;;24.77;16.02;;;;;;;14.21;66.93;100422.47;5095572;28;20044;-71
2022/12/23 04:57:40;;;;;;;22.67;14.90;;;;;;;14.21;67.01;100425.16;5095430;28;20040;-69
2022/12/23 05:00:07;;;;;;;28.17;16.50;;;;;;;14.17;66.84;100419.19;5095611;28;20070;-71
2022/12/23 05:02:34;;;;;;;21.77;14.38;;;;;;;14.18;67.18;100412.78;5094220;28;20044;-70
2022/12/23 05:05:00;;;;;;;25.40;14.90;;;;;;;14.18;66.90;100404.69;5095401;28;20042;-69
2022/12/23 05:07:27;;;;;;;23.65;14.73;;;;;;;14.19;66.92;100403.69;5095316;28;20040;-70
2022/12/23 05:09:53;;;;;;;26.65;15.63;;;;;;;14.20;67.11;100409.94;5095003;28;20043;-70
2022/12/23 05:12:20;;;;;;;23.52;15.13;;;;;;;14.20;66.82;100410.81;5094885;28;20111;-69
2022/12/23 05:14:47;;;;;;;23.10;15.75;;;;;;;14.21;67.16;100411.66;5094169;28;20039;-71
2022/12/23 05:17:13;;;;;;;24.73;15.77;;;;;;;14.20;67.12;100413.50;5095351;28;20115;-70
2022/12/23 05:19:40;;;;;;;27.83;16.80;;;;;;;14.21;66.82;100411.66;5095188;28;20032;-69
2022/12/23 05:22:06;;;;;;;24.77;16.70;;;;;;;14.19;67.10;100406.41;5093520;28;20048;-69
2022/12/23 05:24:33;;;;;;;24.33;15.35;;;;;;;14.21;67.10;100411.66;5094521;28;20036;-70
2022/12/23 05:26:59;;;;;;;24.98;15.35;;;;;;;14.20;66.94;100418.91;5094531;28;20139;-70
2022/12/23 05:29:26;;;;;;;26.02;16.65;;;;;;;14.21;66.84;100417.91;5095030;28;20134;-70
2022/12/23 05:31:53;;;;;;;24.88;15.57;;;;;;;14.23;66.96;100433.97;5094573;28;20107;-70
2022/12/23 05:34:20;;;;;;;24.08;14.07;;;;;;;14.23;67.31;100439.38;5094273;28;20047;-70
2022/12/23 05:36:46;;;;;;;21.30;14.45;;;;;;;14.21;67.16;100439.50;5093577;28;20384;-70
2022/12/23 05:39:13;;;;;;;24.20;15.45;;;;;;;14.22;66.73;100445.78;5093588;28;20118;-69
2022/12/23 05:41:40;;;;;;;24.55;16.13;;;;;;;14.23;67.10;100447.47;5075334;28;20055;-70
2022/12/23 05:44:06;;;;;;;41.67;19.50;;;;;;;14.24;66.81;100446.47;5093583;28;20040;-70
2022/12/23 05:46:33;;;;;;;32.58;17.90;;;;;;;14.24;67.15;100460.00;5094375;28;20054;-71
2022/12/23 05:49:00;;;;;;;32.80;18.63;;;;;;;14.26;66.70;100452.59;5094460;28;20042;-70
2022/12/23 05:51:26;;;;;;;23.90;14.07;;;;;;;14.26;66.89;100461.56;5094811;28;20040;-69
2022/12/23 05:53:53;;;;;;;28.27;14.93;;;;;;;14.27;66.48;100465.09;5078445;28;20041;-70
2022/12/23 05:56:19;;;;;;;23.98;14.77;;;;;;;14.25;66.78;100457.16;5074234;28;20122;-71
2022/12/23 05:58:46;;;;;;;25.45;14.77;;;;;;;14.26;66.60;100458.00;5074097;28;20044;-71
2022/12/23 06:01:13;;;;;;;24.48;14.15;;;;;;;14.26;66.98;100461.56;5080772;28;20076;-71
2022/12/23 06:03:39;;;;;;;37.25;18.98;;;;;;;14.24;66.98;100460.84;5093267;28;20040;-71
2022/12/23 06:06:07;;;;;;;24.15;15.25;;;;;;;14.24;66.57;100457.28;5093966;28;20044;-71
2022/12/23 06:08:33;;;;;;;30.75;18.23;;;;;;;14.22;66.89;100445.78;5093926;28;20040;-71
2022/12/23 06:11:03;;;;;;;37.38;20.88;;;;;;;14.19;66.92;100436.09;5094181;28;20040;-71
2022/12/23 06:13:30;;;;;;;43.70;22.90;;;;;;;14.19;66.84;100441.50;5092676;28;20074;-70
2022/12/23 06:15:56;;;;;;;44.17;23.33;;;;;;;14.19;66.54;100437.94;5094140;28;20040;-71
2022/12/23 06:18:23;;;;;;;38.38;22.95;;;;;;;14.19;66.93;100435.25;5094245;28;20420;-70
2022/12/23 06:20:49;;;;;;;46.05;25.08;;;;;;;14.18;66.75;100431.69;5087642;28;20094;-70
2022/12/23 06:23:16;;;;;;;40.35;21.63;;;;;;;14.19;66.56;100429.84;5081519;28;20044;-71
2022/12/23 06:25:43;;;;;;;47.55;26.67;;;;;;;14.17;66.97;100424.59;5092681;28;20039;-70
2022/12/23 06:28:09;;;;;;;46.58;23.60;;;;;;;14.17;66.88;100421.03;5094052;28;20052;-70
2022/12/23 06:30:36;;;;;;;49.92;25.98;;;;;;;14.17;66.57;100426.44;5093588;28;20135;-70
2022/12/23 06:33:03;;;;;;;48.30;24.60;;;;;;;14.15;66.86;100414.94;5092726;28;20036;-70
2022/12/23 06:35:29;;;;;;;42.78;22.00;;;;;;;14.15;66.56;100414.94;5093828;28;20051;-70
2022/12/23 06:37:56;;;;;;;45.10;23.80;;;;;;;14.15;66.95;100421.19;5093572;28;20095;-70
2022/12/23 06:40:22;;;;;;;46.10;25.60;;;;;;;14.14;66.47;100435.69;5092468;28;20042;-70
2022/12/23 06:42:49;;;;;;;44.10;24.15;;;;;;;14.15;66.83;100431.13;5092855;28;20098;-70
2022/12/23 06:45:16;;;;;;;43.33;24.08;;;;;;;14.13;66.46;100433.97;5093284;28;20135;-70
2022/12/23 06:47:44;;;;;;;43.35;23.38;;;;;;;14.15;66.41;100436.53;5093227;28;20103;-70
2022/12/23 06:50:10;;;;;;;53.10;25.33;;;;;;;14.14;66.51;100432.13;5096084;28;20040;-69
2022/12/23 06:52:37;;;;;;;41.17;24.20;;;;;;;14.14;66.37;100441.06;5094723;28;20048;-70
2022/12/23 06:55:04;;;;;;;47.80;22.70;;;;;;;14.15;66.59;100444.63;5073409;28;20375;-69
2022/12/23 06:57:31;;;;;;;42.28;22.85;;;;;;;14.15;66.64;100448.19;5073342;28;20036;-69
2022/12/23 06:59:57;;;;;;;36.50;21.17;;;;;;;14.14;66.67;100459.13;5073555;28;20135;-70
2022/12/23 07:02:24;;;;;;;45.05;21.63;;;;;;;14.11;66.28;100462.06;5074938;28;20085;-70
2022/12/23 07:04:50;;;;;;;46.30;22.50;;;;;;;14.10;66.67;100471.19;5073135;28;20036;-71
2022/12/23 07:07:17;;;;;;;45.35;23.15;;;;;;;14.08;66.79;100476.72;5073539;28;20048;-70
2022/12/23 07:09:44;;;;;;;40.15;21.00;;;;;;;14.08;66.44;100489.38;5074844;28;20046;-70
2022/12/23 07:12:10;;;;;;;48.95;24.55;;;;;;;14.08;66.67;100510.97;5078914;28;20177;-71
2022/12/23 07:14:37;;;;;;;41.63;23.52;;;;;;;14.04;66.89;100517.63;5097285;28;20170;-72
2022/12/23 07:17:03;;;;;;;46.25;23.88;;;;;;;14.04;66.79;100514.94;5097508;28;20127;-69
2022/12/23 07:19:30;;;;;;;52.50;24.08;;;;;;;14.03;66.79;100521.34;5097226;28;20044;-71
2022/12/23 07:21:56;;;;;;;50.42;24.08;;;;;;;14.03;66.64;100516.78;5096232;28;20036;-71
2022/12/23 07:24:23;;;;;;;51.60;24.50;;;;;;;14.05;66.80;100517.50;5097343;28;20050;-72
2022/12/23 07:26:50;;;;;;;63.40;27.80;;;;;;;14.06;66.65;100531.84;5095313;28;20135;-70
2022/12/23 07:29:17;;;;;;;58.80;26.05;;;;;;;14.04;66.70;100514.94;5096201;28;20066;-72
2022/12/23 07:31:43;;;;;;;57.45;25.35;;;;;;;14.02;66.35;100498.88;5095945;28;20123;-73
2022/12/23 07:34:10;;;;;;;53.55;24.38;;;;;;;14.03;66.62;100506.00;5095673;28;20902;-71
2022/12/23 07:36:36;;;;;;;48.53;23.30;;;;;;;14.03;66.80;100505.13;5076844;28;20494;-71
2022/12/23 07:39:03;;;;;;;47.33;23.33;;;;;;;14.02;66.48;100498.03;5076873;28;20510;-71
2022/12/23 07:41:30;;;;;;;37.47;20.30;;;;;;;14.04;66.68;100496.03;5075297;28;20033;-72
2022/12/23 07:44:04;;;;;;;39.10;19.88;;;;;;;14.04;66.39;100496.03;5076761;28;20033;-71
2022/12/23 07:46:31;;;;;;;39.00;19.17;;;;;;;14.05;66.33;100489.66;5087024;28;20066;-70
2022/12/23 07:48:57;;;;;;;51.42;22.40;;;;;;;14.04;66.42;100494.19;5083756;28;20086;-72
2022/12/23 07:51:24;;;;;;;45.47;21.55;;;;;;;14.02;66.51;100492.63;5076879;28;20044;-72
2022/12/23 07:53:51;;;;;;;44.63;21.83;;;;;;;14.03;66.68;100488.94;5076175;28;20116;-71
2022/12/23 07:56:18;;;;;;;42.60;23.00;;;;;;;14.01;66.91;100480.97;5082466;28;20071;-73
2022/12/23 07:58:49;;;;;;;41.55;21.98;;;;;;;14.02;66.79;100482.69;5076344;28;20044;-72
2022/12/23 08:01:16;;;;;;;68.45;26.73;;;;;;;14.02;66.83;100487.22;5075747;28;20053;-71
2022/12/23 08:03:43;;;;;;;43.28;22.77;;;;;;;14.05;66.49;100481.53;5073649;28;20057;-71
2022/12/23 08:06:12;;;;;;;51.10;23.23;;;;;;;14.07;66.57;100479.56;5075065;28;20041;-71
2022/12/23 08:08:40;;;;;;;37.13;22.00;;;;;;;14.07;66.75;100488.50;5085459;28;20044;-71
2022/12/23 08:11:11;;;;;;;40.72;21.98;;;;;;;14.09;66.63;100496.47;5095214;28;20044;-71
2022/12/23 08:13:40;;;;;;;40.45;21.35;;;;;;;14.10;66.55;100487.38;5094890;28;20085;-71
2022/12/23 08:16:07;;;;;;;48.95;25.08;;;;;;;14.10;66.73;100482.81;5084460;28;20055;-71
2022/12/23 08:18:36;;;;;;;47.65;24.52;;;;;;;14.10;66.47;100493.63;5079414;28;20046;-72
2022/12/23 08:21:10;;;;;;;44.95;26.05;;;;;;;14.12;66.09;100488.97;5112434;28;20040;-71
2022/12/23 08:23:37;;;;;;;49.42;25.42;;;;;;;14.13;66.70;100487.13;5095902;28;20044;-71
2022/12/23 08:26:07;;;;;;;44.90;26.13;;;;;;;14.11;66.46;100484.53;5094783;28;20123;-71
2022/12/23 08:28:34;;;;;;;48.60;26.42;;;;;;;14.13;66.65;100466.38;5111764;28;20052;-72
2022/12/23 08:31:16;;;;;;;62.47;30.42;;;;;;;14.13;66.25;100474.47;5114691;28;20093;-71
2022/12/23 08:33:45;;;;;;;45.65;25.63;;;;;;;14.13;66.12;100476.31;5113782;28;20108;-71
2022/12/23 08:36:16;;;;;;;49.92;27.15;;;;;;;14.12;66.50;100469.19;5115097;28;20043;-71
2022/12/23 08:38:49;;;;;;;45.88;27.00;;;;;;;14.12;66.41;100458.38;5111796;28;20050;-72
2022/12/23 08:41:19;;;;;;;66.35;33.50;;;;;;;14.10;66.00;100449.56;5113405;28;20533;-73
2022/12/23 08:43:45;;;;;;;57.67;31.08;;;;;;;14.08;66.49;100447.00;5111730;28;20134;-71
2022/12/23 08:46:12;;;;;;;57.50;30.17;;;;;;;14.09;66.51;100458.66;5100297;27;20414;-71
2022/12/23 08:48:39;;;;;;;64.18;33.28;;;;;;;14.06;66.26;100456.25;5093590;28;20052;-71
2022/12/23 08:51:16;;;;;;;66.97;33.85;;;;;;;14.05;66.44;100460.78;5092962;28;20119;-73
2022/12/23 08:53:43;;;;;;;60.58;30.77;;;;;;;14.05;66.22;100468.91;5093208;28;20123;-72
2022/12/23 08:56:13;;;;;;;77.07;35.22;;;;;;;14.04;66.56;100471.75;5085751;28;20097;-70
2022/12/23 08:58:45;;;;;;;66.78;34.08;;;;;;;14.03;66.18;100462.78;5097305;28;20036;-72
2022/12/23 09:01:14;;;;;;;70.00;35.10;;;;;;;14.04;66.61;100463.63;5094075;28;20093;-71
2022/12/23 09:03:42;;;;;;;62.85;32.33;;;;;;;14.03;66.46;100459.22;5053097;28;1124063;-70
2022/12/23 09:06:15;;;;;;;74.32;34.70;;;;;;;14.04;66.18;100439.34;5089757;28;20040;-71
2022/12/23 09:08:42;;;;;;;69.20;34.25;;;;;;;14.02;66.37;100441.31;5074795;28;20119;-71
2022/12/23 09:11:20;;;;;;;69.97;36.22;;;;;;;14.00;66.56;100438.75;5092261;28;20127;-71
2022/12/23 09:13:47;;;;;;;66.30;33.53;;;;;;;14.01;66.61;100435.06;5092214;28;20115;-71
2022/12/23 09:16:14;;;;;;;78.50;36.60;;;;;;;13.99;66.36;100435.22;5095199;28;20055;-70
2022/12/23 09:18:41;;;;;;;67.13;33.70;;;;;;;14.00;66.31;100427.97;5095191;28;20048;-71
2022/12/23 09:21:15;;;;;;;61.20;32.53;;;;;;;13.97;66.61;100421.00;5094757;28;20044;-72
2022/12/23 09:23:42;;;;;;;64.93;30.35;;;;;;;13.99;66.64;100421.72;5094253;28;20486;-71
2022/12/23 09:26:10;;;;;;;63.85;31.48;;;;;;;13.96;66.47;100422.00;5092882;28;20043;-72
2022/12/23 09:28:38;;;;;;;70.05;31.67;;;;;;;13.94;66.79;100421.28;5092730;28;20079;-71
2022/12/23 09:31:10;;;;;;;54.50;29.27;;;;;;;13.93;66.84;100422.28;5094562;28;20121;-72
2022/12/23 09:33:37;;;;;;;49.33;27.27;;;;;;;13.95;66.46;100420.28;5092329;28;20248;-71
2022/12/23 09:36:05;;;;;;;63.67;31.52;;;;;;;13.95;66.46;100420.28;5094552;28;20044;-72
2022/12/23 09:38:32;;;;;;;59.40;28.65;;;;;;;13.94;67.02;100410.50;5093488;28;20042;-71
2022/12/23 09:41:23;;;;;;;60.50;27.60;;;;;;;13.95;66.74;100408.63;5094192;28;20089;-72
2022/12/23 09:44:10;;;;;;;43.72;24.95;;;;;;;13.95;66.92;100397.84;5093709;28;20055;-72
2022/12/23 09:46:45;;;;;;;51.30;25.25;;;;;;;13.96;66.99;100392.31;5093082;28;20048;-71
2022/12/23 09:49:13;;;;;;;;;;;;;;;13.99;66.56;100383.91;5093492;28;20493;-72
2022/12/23 09:51:40;;;;;;;39.35;21.95;;;;;;;14.02;66.50;100373.81;5092727;28;19977;-72
2022/12/23 09:54:18;;;;;;;44.70;23.05;;;;;;;14.00;66.46;100390.16;5092062;28;20054;-71
2022/12/23 09:57:11;;;;;;;49.95;25.05;;;;;;;13.96;66.46;100380.66;5081586;28;20044;-72
2022/12/23 09:59:51;;;;;;;46.50;21.65;;;;;;;13.94;66.94;100372.69;5073969;28;20549;-73
2022/12/23 10:02:40;;;;;;;46.05;22.70;;;;;;;13.93;66.67;100362.03;5071684;28;20045;-73
2022/12/23 10:05:34;;;;;;;48.13;22.70;;;;;;;13.91;66.65;100353.22;5072932;28;20040;-72
2022/12/23 10:08:08;;;;;;;48.38;22.80;;;;;;;13.90;66.57;100355.06;5089085;28;20079;-72
2022/12/23 10:10:45;;;;;;;45.58;21.95;;;;;;;13.89;66.83;100357.91;5070966;28;20056;-73
2022/12/23 10:13:26;;;;;;;37.55;21.77;;;;;;;13.91;66.59;100356.78;5071979;28;20124;-73
2022/12/23 10:15:57;;;;;;;41.95;21.27;;;;;;;13.93;66.79;100364.72;5072048;28;20552;-73
2022/12/23 10:18:43;;;;;;;44.50;21.45;;;;;;;13.90;67.01;100373.97;5072165;28;20036;-73
2022/12/23 10:21:39;;;;;;;33.20;18.80;;;;;;;13.91;66.82;100370.28;5072137;28;20550;-72
2022/12/23 10:24:21;;;;;;;34.40;19.35;;;;;;;13.92;67.02;100363.03;5072527;28;20101;-71
2022/12/23 10:26:56;;;;;;;35.92;18.95;;;;;;;13.91;67.09;100355.94;5073439;28;20554;-69
2022/12/23 10:29:25;;;;;;;34.58;19.25;;;;;;;13.91;67.00;100345.97;5076162;28;20062;-69
2022/12/23 10:32:10;;;;;;;30.20;18.30;;;;;;;13.91;66.72;100343.28;5093000;28;20135;-72
2022/12/23 10:35:00;;;;;;;29.50;16.40;;;;;;;13.93;66.95;100333.19;5092407;28;20043;-72
2022/12/23 10:37:42;;;;;;;29.40;17.65;;;;;;;13.93;66.71;100325.09;5092150;28;20040;-72
2022/12/23 10:40:46;;;;;;;33.58;16.48;;;;;;;13.91;66.90;100323.53;5093397;28;20042;-72
2022/12/23 10:43:13;;;;;;;27.65;14.73;;;;;;;13.91;66.72;100320.84;5092843;28;20486;-73
2022/12/23 10:45:47;;;;;;;29.52;16.05;;;;;;;13.88;67.01;100315.72;5093044;28;20396;-73
2022/12/23 10:48:49;;;;;;;30.33;16.00;;;;;;;13.86;66.71;100318.56;5093701;28;20127;-72
2022/12/23 10:51:29;;;;;;;29.63;16.38;;;;;;;13.86;66.75;100321.25;5031190;28;20145;-71
2022/12/23 10:54:27;;;;;;;30.38;17.58;;;;;;;13.84;67.20;100315.16;5083325;28;20047;-71
2022/12/23 10:56:54;;;;;;;27.35;16.48;;;;;;;13.85;67.18;100311.47;5093344;28;20068;-72
2022/12/23 10:59:26;;;;;;;33.75;18.27;;;;;;;13.85;67.13;100291.72;5092041;28;20037;-72
2022/12/23 11:02:01;;;;;;;29.45;17.25;;;;;;;13.85;66.74;100286.31;5092615;28;20050;-72
2022/12/23 11:04:36;;;;;;;31.25;18.00;;;;;;;13.85;67.15;100292.56;5093410;28;20040;-72
2022/12/23 11:07:06;;;;;;;28.40;17.17;;;;;;;13.88;66.90;100284.19;5093351;28;20120;-72
2022/12/23 11:10:06;;;;;;;27.50;16.45;;;;;;;13.92;66.71;100279.34;5092977;28;20048;-72
2022/12/23 11:12:41;;;;;;;31.10;17.70;;;;;;;13.91;67.04;100273.09;5092626;28;20040;-72
2022/12/23 11:15:30;;;;;;;24.00;15.85;;;;;;;13.92;66.94;100255.91;5093290;28;20044;-71
2022/12/23 11:18:02;;;;;;;23.23;15.15;;;;;;;13.93;66.60;100249.50;5093216;28;20044;-72
2022/12/23 11:20:29;;;;;;;25.20;15.73;;;;;;;13.92;67.01;100246.94;5093064;28;20044;-72
2022/12/23 11:23:00;;;;;;;24.27;14.60;;;;;;;13.91;66.76;100232.59;5092540;28;20047;-72
2022/12/23 11:25:36;;;;;;;21.85;14.93;;;;;;;13.91;67.09;100229.91;5092764;28;20066;-72
2022/12/23 11:28:09;;;;;;;23.60;13.15;;;;;;;13.94;66.66;100235.00;5093184;28;20036;-72
2022/12/23 11:30:44;;;;;;;24.02;13.32;;;;;;;13.95;66.90;100236.72;5092856;28;20042;-72
2022/12/23 11:33:23;;;;;;;23.42;13.23;;;;;;;13.98;67.10;100230.16;5091538;28;20064;-72
2022/12/23 11:36:13;;;;;;;22.35;13.15;;;;;;;13.99;66.90;100230.03;5092731;28;20044;-72
2022/12/23 11:38:55;;;;;;;31.00;15.32;;;;;;;13.99;66.93;100221.94;5093153;28;20043;-72
2022/12/23 11:41:26;;;;;;;19.52;12.13;;;;;;;14.01;66.66;100221.78;5092861;28;20494;-73
2022/12/23 11:44:04;;;;;;;25.30;13.13;;;;;;;14.00;66.51;100223.63;5092263;28;20044;-72
2022/12/23 11:46:33;;;;;;;20.92;12.52;;;;;;;14.03;66.73;100208.13;5091611;28;20101;-69
2022/12/23 11:49:16;;;;;;;17.40;10.90;;;;;;;14.02;66.75;100201.03;5087342;27;20072;-73
2022/12/23 11:51:47;;;;;;;22.77;11.93;;;;;;;14.00;66.75;100201.19;5075409;28;20039;-69